Terminal Aerodrome Forecast
Issued by NWS

Home | Current Version | Previous Version | Text Only | Print | Product List | Glossary Off
Versions: 1 2 3 4 5 6 7 8 9 10 11 12 13 14 15 16 17 18 19 20

000
FTUS43 KTOP 130900 AAA
TAFMHK
TAF AMD
KMHK 130929Z 1309/1406 11008KT P6SM SCT025 BKN035
     FM131700 18016G25KT P6SM VCTS BKN040CB
     FM131900 12012KT 4SM TSRA BKN020CB OVC040
     FM132000 35017G27KT 4SM TSRA OVC015CB
     FM132200 35024G35KT 4SM -DZ OVC015=

USA.gov is the U.S. government's official web portal to all federal, state and local government web resources and services.